Portada
METAR-TAF:

METAR-TAF

Aeroports :

Qeshm, Iran

latitud: 26-45-18N, longitud: 055-54-08E, altitud: 12 m

Observació

L'informe es va fer fa 1 hora i 6 minuts, a les 13:00 UTC
Vent 6 kt del Sud/Sud-Est
Temperatura 36°C
Humitat 60%
Pressió 996 hPa
Visibilitat: 6000 m

METAR: OIKQ 201300Z 15006KT 6000 NSC 36/27 Q0996

Hora: 18:36 (14:06 UTC)


TAF: manca

Observacions i pronòstics meteorològics de més de 4000 aeroports (METAR i TAF).

Les estacions disponibles són els punts grocs i vermells al mapa.

Posi el ratolí al punt desitjat per veure el nom de l'estació.

Feu clic per veure les observacions i els pronòstics meteorològics.

Per canviar el mapa: feu clic els botons verds amb una creu de color negre per apropar; al botó verd amb un guió per allunyar la imatge; o en les fletxes verdes per a mapes adjacents.


METAR-TAF: